sensor_id;sensor_type;location;lat;lon;timestamp;pressure;altitude;pressure_sealevel;temperature;humidity
71107;BME280;58763;47.982;11.516;2023-05-14T00:00:00;94069.88;;;11.31;85.64
71107;BME280;58763;47.982;11.516;2023-05-14T00:02:25;94064.41;;;11.36;85.32
71107;BME280;58763;47.982;11.516;2023-05-14T00:04:51;94066.00;;;11.37;85.63
71107;BME280;58763;47.982;11.516;2023-05-14T00:07:17;94063.28;;;11.37;85.88
71107;BME280;58763;47.982;11.516;2023-05-14T00:09:43;94059.03;;;11.31;86.06
71107;BME280;58763;47.982;11.516;2023-05-14T00:12:08;94047.09;;;11.32;86.04
71107;BME280;58763;47.982;11.516;2023-05-14T00:14:34;94045.94;;;11.38;86.22
71107;BME280;58763;47.982;11.516;2023-05-14T00:17:00;94041.63;;;11.37;85.72
71107;BME280;58763;47.982;11.516;2023-05-14T00:19:26;94043.75;;;11.40;85.79
71107;BME280;58763;47.982;11.516;2023-05-14T00:21:51;94044.75;;;11.44;86.00
71107;BME280;58763;47.982;11.516;2023-05-14T00:24:17;94042.44;;;11.38;86.24
71107;BME280;58763;47.982;11.516;2023-05-14T00:26:43;94038.47;;;11.30;86.53
71107;BME280;58763;47.982;11.516;2023-05-14T00:29:09;94039.34;;;11.26;86.83
71107;BME280;58763;47.982;11.516;2023-05-14T00:31:34;94033.50;;;11.19;87.12
71107;BME280;58763;47.982;11.516;2023-05-14T00:34:00;94034.44;;;11.28;86.90
71107;BME280;58763;47.982;11.516;2023-05-14T00:36:25;94030.88;;;11.32;86.84
71107;BME280;58763;47.982;11.516;2023-05-14T00:38:51;94029.72;;;11.38;86.72
71107;BME280;58763;47.982;11.516;2023-05-14T00:41:16;94032.50;;;11.33;86.89
71107;BME280;58763;47.982;11.516;2023-05-14T00:43:42;94027.88;;;11.34;86.67
71107;BME280;58763;47.982;11.516;2023-05-14T00:46:07;94031.09;;;11.36;87.22
71107;BME280;58763;47.982;11.516;2023-05-14T00:48:33;94032.50;;;11.33;86.73
71107;BME280;58763;47.982;11.516;2023-05-14T00:50:58;94039.06;;;11.46;86.31
71107;BME280;58763;47.982;11.516;2023-05-14T00:53:24;94039.41;;;11.39;86.62
71107;BME280;58763;47.982;11.516;2023-05-14T00:55:51;94038.84;;;11.42;86.46
71107;BME280;58763;47.982;11.516;2023-05-14T00:58:17;94032.41;;;11.38;86.50
71107;BME280;58763;47.982;11.516;2023-05-14T01:00:42;94033.72;;;11.41;86.83
71107;BME280;58763;47.982;11.516;2023-05-14T01:03:08;94032.91;;;11.40;86.77
71107;BME280;58763;47.982;11.516;2023-05-14T01:05:51;94032.84;;;11.45;86.35
71107;BME280;58763;47.982;11.516;2023-05-14T01:11:30;94023.84;;;11.31;87.21
71107;BME280;58763;47.982;11.516;2023-05-14T01:16:57;94027.38;;;11.32;87.31
71107;BME280;58763;47.982;11.516;2023-05-14T01:19:40;94024.94;;;11.30;87.76
71107;BME280;58763;47.982;11.516;2023-05-14T01:22:06;94015.81;;;11.26;87.57
71107;BME280;58763;47.982;11.516;2023-05-14T01:24:32;94018.06;;;11.19;87.57
71107;BME280;58763;47.982;11.516;2023-05-14T01:27:07;94016.38;;;11.23;88.04
71107;BME280;58763;47.982;11.516;2023-05-14T01:29:36;94014.69;;;11.27;87.93
71107;BME280;58763;47.982;11.516;2023-05-14T01:32:05;94010.09;;;11.28;87.99
71107;BME280;58763;47.982;11.516;2023-05-14T01:34:34;94007.75;;;11.21;87.64
71107;BME280;58763;47.982;11.516;2023-05-14T01:37:00;93997.50;;;11.18;87.85
71107;BME280;58763;47.982;11.516;2023-05-14T01:39:27;94005.56;;;11.23;87.96
71107;BME280;58763;47.982;11.516;2023-05-14T01:41:53;93995.53;;;11.24;88.02
71107;BME280;58763;47.982;11.516;2023-05-14T01:44:20;93998.56;;;11.22;88.12
71107;BME280;58763;47.982;11.516;2023-05-14T01:46:45;94003.88;;;11.27;87.83
71107;BME280;58763;47.982;11.516;2023-05-14T01:49:11;94000.00;;;11.33;87.66
71107;BME280;58763;47.982;11.516;2023-05-14T01:51:36;94001.97;;;11.28;87.62
71107;BME280;58763;47.982;11.516;2023-05-14T01:54:02;94000.66;;;11.25;87.94
71107;BME280;58763;47.982;11.516;2023-05-14T01:56:28;93996.78;;;11.31;87.79
71107;BME280;58763;47.982;11.516;2023-05-14T01:58:53;94004.53;;;11.38;87.81
71107;BME280;58763;47.982;11.516;2023-05-14T02:01:21;93997.06;;;11.30;87.62
71107;BME280;58763;47.982;11.516;2023-05-14T02:03:46;93995.09;;;11.35;87.93
71107;BME280;58763;47.982;11.516;2023-05-14T02:06:12;93995.41;;;11.34;87.83
71107;BME280;58763;47.982;11.516;2023-05-14T02:08:37;93994.66;;;11.28;88.14
71107;BME280;58763;47.982;11.516;2023-05-14T02:11:03;93987.72;;;11.22;88.45
71107;BME280;58763;47.982;11.516;2023-05-14T02:13:28;93987.56;;;11.32;88.25
71107;BME280;58763;47.982;11.516;2023-05-14T02:15:54;93988.78;;;11.40;87.30
71107;BME280;58763;47.982;11.516;2023-05-14T02:18:19;93992.19;;;11.32;87.62
71107;BME280;58763;47.982;11.516;2023-05-14T02:20:45;93985.91;;;11.18;88.57
71107;BME280;58763;47.982;11.516;2023-05-14T02:23:10;93987.81;;;11.17;88.78
71107;BME280;58763;47.982;11.516;2023-05-14T02:25:36;93987.81;;;11.17;88.56
71107;BME280;58763;47.982;11.516;2023-05-14T02:28:02;93989.50;;;11.13;89.15
71107;BME280;58763;47.982;11.516;2023-05-14T02:30:27;93989.19;;;11.15;89.52
71107;BME280;58763;47.982;11.516;2023-05-14T02:32:54;93994.16;;;11.26;89.09
71107;BME280;58763;47.982;11.516;2023-05-14T02:35:19;93983.25;;;11.31;88.14
71107;BME280;58763;47.982;11.516;2023-05-14T02:37:45;93987.56;;;11.32;88.52
71107;BME280;58763;47.982;11.516;2023-05-14T02:40:10;93981.13;;;11.28;88.96
71107;BME280;58763;47.982;11.516;2023-05-14T02:42:36;93978.06;;;11.16;89.44
71107;BME280;58763;47.982;11.516;2023-05-14T02:45:02;93976.19;;;10.98;89.89
71107;BME280;58763;47.982;11.516;2023-05-14T02:47:27;93981.44;;;10.89;90.51
71107;BME280;58763;47.982;11.516;2023-05-14T02:49:53;93975.38;;;10.97;90.11
71107;BME280;58763;47.982;11.516;2023-05-14T02:52:18;93972.81;;;11.06;89.89
71107;BME280;58763;47.982;11.516;2023-05-14T02:54:43;93968.50;;;11.05;89.59
71107;BME280;58763;47.982;11.516;2023-05-14T02:57:09;93965.34;;;10.98;89.63
71107;BME280;58763;47.982;11.516;2023-05-14T02:59:34;93963.28;;;10.90;90.02
71107;BME280;58763;47.982;11.516;2023-05-14T03:02:00;93968.38;;;10.96;90.24
71107;BME280;58763;47.982;11.516;2023-05-14T03:04:25;93971.34;;;10.95;89.98
71107;BME280;58763;47.982;11.516;2023-05-14T03:06:51;93965.94;;;10.95;89.64
71107;BME280;58763;47.982;11.516;2023-05-14T03:09:16;93964.84;;;10.96;89.43
71107;BME280;58763;47.982;11.516;2023-05-14T03:11:42;93969.38;;;10.82;89.80
71107;BME280;58763;47.982;11.516;2023-05-14T03:14:07;93967.03;;;10.57;90.69
71107;BME280;58763;47.982;11.516;2023-05-14T03:16:33;93968.75;;;10.48;90.47
71107;BME280;58763;47.982;11.516;2023-05-14T03:18:58;93968.66;;;10.53;90.75
71107;BME280;58763;47.982;11.516;2023-05-14T03:21:24;93965.47;;;10.51;90.30
71107;BME280;58763;47.982;11.516;2023-05-14T03:23:51;93972.47;;;10.52;90.42
71107;BME280;58763;47.982;11.516;2023-05-14T03:26:17;93972.09;;;10.39;90.02
71107;BME280;58763;47.982;11.516;2023-05-14T03:28:43;93964.44;;;10.23;90.61
71107;BME280;58763;47.982;11.516;2023-05-14T03:31:08;93964.81;;;10.16;90.71
71107;BME280;58763;47.982;11.516;2023-05-14T03:33:33;93966.69;;;10.16;91.18
71107;BME280;58763;47.982;11.516;2023-05-14T03:35:59;93968.44;;;10.02;90.99
71107;BME280;58763;47.982;11.516;2023-05-14T03:38:25;93960.28;;;9.83;92.42
71107;BME280;58763;47.982;11.516;2023-05-14T03:40:50;93962.72;;;9.85;92.22
71107;BME280;58763;47.982;11.516;2023-05-14T03:43:16;93970.16;;;9.93;92.26
71107;BME280;58763;47.982;11.516;2023-05-14T03:45:41;93970.34;;;10.01;91.78
71107;BME280;58763;47.982;11.516;2023-05-14T03:48:06;93975.66;;;10.11;91.17
71107;BME280;58763;47.982;11.516;2023-05-14T03:50:32;93968.38;;;10.12;91.34
71107;BME280;58763;47.982;11.516;2023-05-14T03:52:58;93972.81;;;9.98;91.33
71107;BME280;58763;47.982;11.516;2023-05-14T03:55:23;93969.81;;;9.99;91.57
71107;BME280;58763;47.982;11.516;2023-05-14T03:57:49;93961.91;;;10.08;91.43
71107;BME280;58763;47.982;11.516;2023-05-14T04:00:15;93960.16;;;10.22;90.67
71107;BME280;58763;47.982;11.516;2023-05-14T04:02:41;93962.06;;;10.21;90.39
71107;BME280;58763;47.982;11.516;2023-05-14T04:05:07;93965.84;;;10.20;90.61
71107;BME280;58763;47.982;11.516;2023-05-14T04:07:32;93964.44;;;10.23;90.15
71107;BME280;58763;47.982;11.516;2023-05-14T04:09:58;93963.09;;;9.97;91.00
71107;BME280;58763;47.982;11.516;2023-05-14T04:12:25;93977.16;;;9.99;91.40
71107;BME280;58763;47.982;11.516;2023-05-14T04:14:51;93960.94;;;9.99;91.49
71107;BME280;58763;47.982;11.516;2023-05-14T04:17:16;93976.03;;;10.00;90.93
71107;BME280;58763;47.982;11.516;2023-05-14T04:19:42;93972.72;;;10.08;91.30
71107;BME280;58763;47.982;11.516;2023-05-14T04:22:08;93968.38;;;10.12;90.81
71107;BME280;58763;47.982;11.516;2023-05-14T04:24:33;93963.19;;;10.15;91.18
71107;BME280;58763;47.982;11.516;2023-05-14T04:26:58;93961.81;;;10.18;90.80
71107;BME280;58763;47.982;11.516;2023-05-14T04:29:24;93968.03;;;10.18;91.29
71107;BME280;58763;47.982;11.516;2023-05-14T04:31:49;93965.84;;;10.20;90.81
71107;BME280;58763;47.982;11.516;2023-05-14T04:34:15;93962.56;;;10.23;90.74
71107;BME280;58763;47.982;11.516;2023-05-14T04:36:40;93959.75;;;10.33;90.00
71107;BME280;58763;47.982;11.516;2023-05-14T04:39:06;93964.69;;;10.26;89.90
71107;BME280;58763;47.982;11.516;2023-05-14T04:41:33;93963.88;;;10.26;90.53
71107;BME280;58763;47.982;11.516;2023-05-14T04:43:59;93973.03;;;10.30;90.45
71107;BME280;58763;47.982;11.516;2023-05-14T04:46:27;93970.03;;;10.31;90.68
71107;BME280;58763;47.982;11.516;2023-05-14T04:48:52;93974.59;;;10.12;90.90
71107;BME280;58763;47.982;11.516;2023-05-14T04:51:17;93970.53;;;10.10;90.88
71107;BME280;58763;47.982;11.516;2023-05-14T04:53:43;93970.72;;;10.18;90.75
71107;BME280;58763;47.982;11.516;2023-05-14T04:56:08;93974.22;;;10.19;90.78
71107;BME280;58763;47.982;11.516;2023-05-14T04:58:34;93971.19;;;10.25;90.68
71107;BME280;58763;47.982;11.516;2023-05-14T05:00:59;93978.41;;;10.30;90.11
71107;BME280;58763;47.982;11.516;2023-05-14T05:03:26;93969.75;;;10.33;90.32
71107;BME280;58763;47.982;11.516;2023-05-14T05:05:51;93971.34;;;10.34;90.35
71107;BME280;58763;47.982;11.516;2023-05-14T05:08:17;93969.59;;;10.24;90.55
71107;BME280;58763;47.982;11.516;2023-05-14T05:10:42;93970.09;;;10.26;90.69
71107;BME280;58763;47.982;11.516;2023-05-14T05:13:08;93973.81;;;10.30;90.38
71107;BME280;58763;47.982;11.516;2023-05-14T05:15:33;93972.28;;;10.24;90.40
71107;BME280;58763;47.982;11.516;2023-05-14T05:17:59;93982.69;;;10.12;90.77
71107;BME280;58763;47.982;11.516;2023-05-14T05:20:24;93982.41;;;10.14;91.47
71107;BME280;58763;47.982;11.516;2023-05-14T05:22:52;93975.81;;;10.20;91.19
71107;BME280;58763;47.982;11.516;2023-05-14T05:25:17;93976.69;;;10.15;91.23
71107;BME280;58763;47.982;11.516;2023-05-14T05:27:43;93972.03;;;10.21;91.41
71107;BME280;58763;47.982;11.516;2023-05-14T05:30:08;93974.69;;;10.26;91.13
71107;BME280;58763;47.982;11.516;2023-05-14T05:32:34;93973.31;;;10.28;90.78
71107;BME280;58763;47.982;11.516;2023-05-14T05:35:00;93969.28;;;10.26;90.61
71107;BME280;58763;47.982;11.516;2023-05-14T05:37:26;93974.41;;;10.27;90.73
71107;BME280;58763;47.982;11.516;2023-05-14T05:39:51;93971.94;;;10.31;90.91
71107;BME280;58763;47.982;11.516;2023-05-14T05:42:18;93975.38;;;10.36;90.25
71107;BME280;58763;47.982;11.516;2023-05-14T05:44:43;93979.38;;;10.39;90.52
71107;BME280;58763;47.982;11.516;2023-05-14T05:47:09;93978.56;;;10.38;89.91
71107;BME280;58763;47.982;11.516;2023-05-14T05:49:34;93981.88;;;10.35;90.07
71107;BME280;58763;47.982;11.516;2023-05-14T05:52:02;93980.00;;;10.36;90.26
71107;BME280;58763;47.982;11.516;2023-05-14T05:54:29;93983.94;;;10.20;90.88
71107;BME280;58763;47.982;11.516;2023-05-14T05:56:56;93982.69;;;10.12;91.23
71107;BME280;58763;47.982;11.516;2023-05-14T05:59:23;93985.16;;;10.04;91.40
71107;BME280;58763;47.982;11.516;2023-05-14T06:01:49;93973.50;;;10.08;91.67
71107;BME280;58763;47.982;11.516;2023-05-14T06:04:14;93977.00;;;10.14;91.78
71107;BME280;58763;47.982;11.516;2023-05-14T06:06:40;93972.84;;;10.21;91.78
71107;BME280;58763;47.982;11.516;2023-05-14T06:09:05;93975.03;;;10.19;91.86
71107;BME280;58763;47.982;11.516;2023-05-14T06:11:31;93966.22;;;10.32;91.37
71107;BME280;58763;47.982;11.516;2023-05-14T06:13:57;93968.88;;;10.37;91.06
71107;BME280;58763;47.982;11.516;2023-05-14T06:16:22;93965.50;;;10.46;90.60
71107;BME280;58763;47.982;11.516;2023-05-14T06:18:47;93972.47;;;10.52;90.39
71107;BME280;58763;47.982;11.516;2023-05-14T06:21:13;93974.69;;;10.50;90.04
71107;BME280;58763;47.982;11.516;2023-05-14T06:23:39;93978.81;;;10.42;90.39
71107;BME280;58763;47.982;11.516;2023-05-14T06:26:05;93972.59;;;10.41;90.56
71107;BME280;58763;47.982;11.516;2023-05-14T06:28:30;93974.91;;;10.29;90.69
71107;BME280;58763;47.982;11.516;2023-05-14T06:30:56;93976.75;;;10.34;91.07
71107;BME280;58763;47.982;11.516;2023-05-14T06:33:21;93983.25;;;10.33;91.17
71107;BME280;58763;47.982;11.516;2023-05-14T06:35:54;93971.53;;;10.43;90.99
71107;BME280;58763;47.982;11.516;2023-05-14T06:38:19;93976.97;;;10.37;90.89
71107;BME280;58763;47.982;11.516;2023-05-14T06:40:45;93970.16;;;10.45;90.71
71107;BME280;58763;47.982;11.516;2023-05-14T06:43:10;93980.09;;;10.50;90.86
71107;BME280;58763;47.982;11.516;2023-05-14T06:45:36;93985.69;;;10.53;90.54
71107;BME280;58763;47.982;11.516;2023-05-14T06:48:01;93981.09;;;10.54;90.13
71107;BME280;58763;47.982;11.516;2023-05-14T06:50:27;93983.75;;;10.59;90.21
71107;BME280;58763;47.982;11.516;2023-05-14T06:52:52;93977.47;;;10.63;89.89
71107;BME280;58763;47.982;11.516;2023-05-14T06:55:18;93979.94;;;10.60;90.09
71107;BME280;58763;47.982;11.516;2023-05-14T06:57:44;93976.72;;;10.58;90.10
71107;BME280;58763;47.982;11.516;2023-05-14T07:00:10;93975.13;;;10.57;89.80
71107;BME280;58763;47.982;11.516;2023-05-14T07:02:35;93973.56;;;10.51;90.46
71107;BME280;58763;47.982;11.516;2023-05-14T07:05:01;93965.47;;;10.51;91.36
71107;BME280;58763;47.982;11.516;2023-05-14T07:07:27;93968.31;;;10.40;91.50
71107;BME280;58763;47.982;11.516;2023-05-14T07:09:52;93962.38;;;10.57;91.60
71107;BME280;58763;47.982;11.516;2023-05-14T07:12:18;93963.88;;;10.68;90.74
71107;BME280;58763;47.982;11.516;2023-05-14T07:14:43;93960.59;;;10.71;90.81
71107;BME280;58763;47.982;11.516;2023-05-14T07:17:09;93958.63;;;10.77;90.81
71107;BME280;58763;47.982;11.516;2023-05-14T07:19:35;93955.03;;;10.81;90.12
71107;BME280;58763;47.982;11.516;2023-05-14T07:22:00;93948.69;;;10.91;89.54
71107;BME280;58763;47.982;11.516;2023-05-14T07:24:26;93954.84;;;10.96;89.35
71107;BME280;58763;47.982;11.516;2023-05-14T07:26:52;93948.53;;;11.01;89.86
71107;BME280;58763;47.982;11.516;2023-05-14T07:29:18;93944.97;;;10.87;90.46
71107;BME280;58763;47.982;11.516;2023-05-14T07:31:44;93933.78;;;10.75;90.69
71107;BME280;58763;47.982;11.516;2023-05-14T07:34:09;93926.16;;;10.77;90.67
71107;BME280;58763;47.982;11.516;2023-05-14T07:36:36;93930.75;;;10.76;90.60
71107;BME280;58763;47.982;11.516;2023-05-14T07:39:01;93924.41;;;10.67;91.67
71107;BME280;58763;47.982;11.516;2023-05-14T07:41:27;93920.56;;;10.73;91.20
71107;BME280;58763;47.982;11.516;2023-05-14T07:43:52;93928.34;;;10.93;91.22
71107;BME280;58763;47.982;11.516;2023-05-14T07:46:18;93930.31;;;11.06;91.16
71107;BME280;58763;47.982;11.516;2023-05-14T07:48:43;93933.69;;;10.98;90.68
71107;BME280;58763;47.982;11.516;2023-05-14T07:51:09;93945.47;;;11.07;90.33
71107;BME280;58763;47.982;11.516;2023-05-14T07:53:36;93937.66;;;11.06;89.78
71107;BME280;58763;47.982;11.516;2023-05-14T07:56:01;93939.16;;;11.12;89.94
71107;BME280;58763;47.982;11.516;2023-05-14T07:58:27;93941.13;;;11.06;89.35
71107;BME280;58763;47.982;11.516;2023-05-14T08:00:53;93935.16;;;10.91;89.93
71107;BME280;58763;47.982;11.516;2023-05-14T08:03:18;93944.53;;;10.80;90.20
71107;BME280;58763;47.982;11.516;2023-05-14T08:05:44;93940.44;;;10.82;91.02
71107;BME280;58763;47.982;11.516;2023-05-14T08:08:10;93946.72;;;10.78;90.99
71107;BME280;58763;47.982;11.516;2023-05-14T08:10:36;93945.59;;;10.79;90.52
71107;BME280;58763;47.982;11.516;2023-05-14T08:13:02;93943.41;;;10.81;90.88
71107;BME280;58763;47.982;11.516;2023-05-14T08:15:27;93945.97;;;10.91;90.62
71107;BME280;58763;47.982;11.516;2023-05-14T08:17:53;93944.47;;;10.85;89.97
71107;BME280;58763;47.982;11.516;2023-05-14T08:20:18;93944.53;;;10.80;90.78
71107;BME280;58763;47.982;11.516;2023-05-14T08:22:43;93950.31;;;10.92;90.63
71107;BME280;58763;47.982;11.516;2023-05-14T08:25:09;93952.13;;;10.96;90.32
71107;BME280;58763;47.982;11.516;2023-05-14T08:27:35;93952.34;;;11.00;90.17
71107;BME280;58763;47.982;11.516;2023-05-14T08:30:01;93945.91;;;11.15;89.57
71107;BME280;58763;47.982;11.516;2023-05-14T08:32:29;93945.66;;;11.11;89.16
71107;BME280;58763;47.982;11.516;2023-05-14T08:34:54;93942.75;;;11.07;89.60
71107;BME280;58763;47.982;11.516;2023-05-14T08:37:20;93937.84;;;11.09;89.74
71107;BME280;58763;47.982;11.516;2023-05-14T08:39:45;93940.81;;;10.94;90.23
71107;BME280;58763;47.982;11.516;2023-05-14T08:42:12;93933.13;;;11.01;91.15
71107;BME280;58763;47.982;11.516;2023-05-14T08:44:42;93936.75;;;11.10;89.99
71107;BME280;58763;47.982;11.516;2023-05-14T08:47:14;93937.97;;;11.18;89.79
71107;BME280;58763;47.982;11.516;2023-05-14T08:49:44;93934.31;;;11.28;88.71
71107;BME280;58763;47.982;11.516;2023-05-14T08:52:11;93931.31;;;11.29;88.91
71107;BME280;58763;47.982;11.516;2023-05-14T08:54:37;93927.84;;;11.10;88.82
71107;BME280;58763;47.982;11.516;2023-05-14T08:57:03;93921.38;;;11.25;89.18
71107;BME280;58763;47.982;11.516;2023-05-14T08:59:29;93926.69;;;11.30;89.25
71107;BME280;58763;47.982;11.516;2023-05-14T09:01:59;93922.31;;;11.34;89.05
71107;BME280;58763;47.982;11.516;2023-05-14T09:04:25;93916.91;;;11.34;88.51
71107;BME280;58763;47.982;11.516;2023-05-14T09:06:53;93924.59;;;11.27;88.32
71107;BME280;58763;47.982;11.516;2023-05-14T09:09:19;93929.16;;;11.13;88.61
71107;BME280;58763;47.982;11.516;2023-05-14T09:11:50;93925.56;;;11.17;88.88
71107;BME280;58763;47.982;11.516;2023-05-14T09:14:16;93924.09;;;11.25;88.73
71107;BME280;58763;47.982;11.516;2023-05-14T09:16:46;93922.66;;;11.27;88.40
71107;BME280;58763;47.982;11.516;2023-05-14T09:19:13;93922.09;;;11.30;88.52
71107;BME280;58763;47.982;11.516;2023-05-14T09:21:40;93921.06;;;11.26;88.30
71107;BME280;58763;47.982;11.516;2023-05-14T09:24:05;93926.00;;;11.24;88.21
71107;BME280;58763;47.982;11.516;2023-05-14T09:26:33;93922.66;;;11.27;88.18
71107;BME280;58763;47.982;11.516;2023-05-14T09:28:59;93925.78;;;11.34;87.65
71107;BME280;58763;47.982;11.516;2023-05-14T09:31:28;93925.59;;;11.31;87.66
71107;BME280;58763;47.982;11.516;2023-05-14T09:33:54;93923.78;;;11.26;87.71
71107;BME280;58763;47.982;11.516;2023-05-14T09:36:19;93937.31;;;11.26;87.11
71107;BME280;58763;47.982;11.516;2023-05-14T09:38:44;93927.38;;;11.22;88.28
71107;BME280;58763;47.982;11.516;2023-05-14T09:41:10;93923.19;;;11.29;88.01
71107;BME280;58763;47.982;11.516;2023-05-14T09:43:36;93926.19;;;11.28;88.03
71107;BME280;58763;47.982;11.516;2023-05-14T09:46:02;93919.81;;;11.37;88.16
71107;BME280;58763;47.982;11.516;2023-05-14T09:48:27;93914.66;;;11.22;87.96
71107;BME280;58763;47.982;11.516;2023-05-14T09:50:53;93928.97;;;11.23;87.57
71107;BME280;58763;47.982;11.516;2023-05-14T09:53:18;93926.81;;;11.06;87.61
71107;BME280;58763;47.982;11.516;2023-05-14T09:55:44;93924.75;;;11.17;87.60
71107;BME280;58763;47.982;11.516;2023-05-14T09:58:10;93926.28;;;11.04;87.27
71107;BME280;58763;47.982;11.516;2023-05-14T10:00:38;93923.97;;;10.97;88.79
71107;BME280;58763;47.982;11.516;2023-05-14T10:03:05;93921.72;;;11.18;88.39
71107;BME280;58763;47.982;11.516;2023-05-14T10:05:35;93919.47;;;11.25;88.35
71107;BME280;58763;47.982;11.516;2023-05-14T10:08:08;93910.78;;;11.42;87.53
71107;BME280;58763;47.982;11.516;2023-05-14T10:10:37;93920.34;;;11.53;87.42
71107;BME280;58763;47.982;11.516;2023-05-14T10:13:14;93923.19;;;11.61;87.07
71107;BME280;58763;47.982;11.516;2023-05-14T10:15:45;93926.75;;;11.75;86.40
71107;BME280;58763;47.982;11.516;2023-05-14T10:18:15;93930.38;;;11.85;86.15
71107;BME280;58763;47.982;11.516;2023-05-14T10:20:42;93929.16;;;11.91;85.20
71107;BME280;58763;47.982;11.516;2023-05-14T10:23:08;93925.75;;;11.71;84.91
71107;BME280;58763;47.982;11.516;2023-05-14T10:25:34;93938.00;;;11.83;84.85
71107;BME280;58763;47.982;11.516;2023-05-14T10:28:01;93933.09;;;11.85;84.78
71107;BME280;58763;47.982;11.516;2023-05-14T10:30:27;93923.34;;;11.84;84.56
71107;BME280;58763;47.982;11.516;2023-05-14T10:33:10;93927.16;;;11.83;85.31
71107;BME280;58763;47.982;11.516;2023-05-14T10:38:34;93926.28;;;12.01;83.90
71107;BME280;58763;47.982;11.516;2023-05-14T10:41:02;93926.84;;;11.84;83.31
71107;BME280;58763;47.982;11.516;2023-05-14T10:43:29;93931.38;;;11.89;83.99
71107;BME280;58763;47.982;11.516;2023-05-14T10:45:59;93934.50;;;11.96;84.23
71107;BME280;58763;47.982;11.516;2023-05-14T10:48:25;93921.16;;;11.99;83.84
71107;BME280;58763;47.982;11.516;2023-05-14T10:50:52;93922.84;;;11.82;83.12
71107;BME280;58763;47.982;11.516;2023-05-14T10:53:18;93916.81;;;11.85;83.30
71107;BME280;58763;47.982;11.516;2023-05-14T10:55:44;93910.69;;;11.79;84.72
71107;BME280;58763;47.982;11.516;2023-05-14T10:58:11;93904.66;;;11.68;84.99
71107;BME280;58763;47.982;11.516;2023-05-14T11:00:37;93894.75;;;11.77;85.44
71107;BME280;58763;47.982;11.516;2023-05-14T11:03:04;93906.72;;;11.90;84.64
71107;BME280;58763;47.982;11.516;2023-05-14T11:05:30;93899.25;;;11.82;84.62
71107;BME280;58763;47.982;11.516;2023-05-14T11:07:57;93893.63;;;11.78;84.46
71107;BME280;58763;47.982;11.516;2023-05-14T11:10:23;93892.63;;;11.88;83.72
71107;BME280;58763;47.982;11.516;2023-05-14T11:12:54;93898.47;;;11.82;85.00
71107;BME280;58763;47.982;11.516;2023-05-14T11:15:21;93893.84;;;11.82;83.83
71107;BME280;58763;47.982;11.516;2023-05-14T11:17:48;93895.97;;;11.99;84.53
71107;BME280;58763;47.982;11.516;2023-05-14T11:20:15;93893.75;;;12.14;82.95
71107;BME280;58763;47.982;11.516;2023-05-14T11:22:44;93892.66;;;12.15;81.15
71107;BME280;58763;47.982;11.516;2023-05-14T11:25:11;93887.41;;;12.19;81.20
71107;BME280;58763;47.982;11.516;2023-05-14T11:27:39;93883.88;;;12.45;81.61
71107;BME280;58763;47.982;11.516;2023-05-14T11:30:15;93876.94;;;12.53;80.36
71107;BME280;58763;47.982;11.516;2023-05-14T11:32:43;93882.44;;;12.62;78.73
71107;BME280;58763;47.982;11.516;2023-05-14T11:35:09;93887.03;;;12.75;77.41
71107;BME280;58763;47.982;11.516;2023-05-14T11:37:34;93875.72;;;12.95;76.92
71107;BME280;58763;47.982;11.516;2023-05-14T11:40:00;93871.56;;;13.11;77.11
71107;BME280;58763;47.982;11.516;2023-05-14T11:42:26;93874.09;;;13.30;75.59
71107;BME280;58763;47.982;11.516;2023-05-14T11:44:52;93866.75;;;13.30;73.23
71107;BME280;58763;47.982;11.516;2023-05-14T11:47:21;93865.66;;;13.40;74.88
71107;BME280;58763;47.982;11.516;2023-05-14T11:49:47;93861.47;;;13.56;75.23
71107;BME280;58763;47.982;11.516;2023-05-14T11:52:15;93860.84;;;13.59;72.41
71107;BME280;58763;47.982;11.516;2023-05-14T11:54:44;93861.16;;;13.57;72.89
71107;BME280;58763;47.982;11.516;2023-05-14T11:57:20;93860.53;;;13.60;74.03
71107;BME280;58763;47.982;11.516;2023-05-14T11:59:47;93863.50;;;13.81;74.13
71107;BME280;58763;47.982;11.516;2023-05-14T12:02:16;93842.00;;;13.93;73.81
71107;BME280;58763;47.982;11.516;2023-05-14T12:04:42;93849.13;;;13.80;73.23
71107;BME280;58763;47.982;11.516;2023-05-14T12:07:11;93847.22;;;13.90;72.39
71107;BME280;58763;47.982;11.516;2023-05-14T12:09:43;93837.19;;;13.99;72.54
71107;BME280;58763;47.982;11.516;2023-05-14T12:12:21;93839.66;;;14.17;70.57
71107;BME280;58763;47.982;11.516;2023-05-14T12:14:47;93828.84;;;14.34;69.56
71107;BME280;58763;47.982;11.516;2023-05-14T12:17:18;93826.19;;;14.12;66.48
71107;BME280;58763;47.982;11.516;2023-05-14T12:19:46;93818.69;;;14.18;68.73
71107;BME280;58763;47.982;11.516;2023-05-14T12:22:14;93822.44;;;14.30;68.87
71107;BME280;58763;47.982;11.516;2023-05-14T12:24:42;93805.44;;;14.25;69.69
71107;BME280;58763;47.982;11.516;2023-05-14T12:27:08;93804.34;;;14.26;69.78
71107;BME280;58763;47.982;11.516;2023-05-14T12:29:35;93802.78;;;14.42;69.32
71107;BME280;58763;47.982;11.516;2023-05-14T12:32:01;93810.78;;;14.64;70.25
71107;BME280;58763;47.982;11.516;2023-05-14T12:34:32;93800.41;;;14.75;68.35
71107;BME280;58763;47.982;11.516;2023-05-14T12:36:58;93806.81;;;14.70;68.47
71107;BME280;58763;47.982;11.516;2023-05-14T12:39:23;93803.91;;;14.49;68.26
71107;BME280;58763;47.982;11.516;2023-05-14T12:41:49;93804.22;;;14.57;68.88
71107;BME280;58763;47.982;11.516;2023-05-14T12:44:14;93798.94;;;14.69;68.35
71107;BME280;58763;47.982;11.516;2023-05-14T12:46:40;93795.09;;;14.87;69.54
71107;BME280;58763;47.982;11.516;2023-05-14T12:49:05;93791.09;;;14.93;66.89
71107;BME280;58763;47.982;11.516;2023-05-14T12:51:32;93795.75;;;14.92;65.70
71107;BME280;58763;47.982;11.516;2023-05-14T12:53:57;93792.69;;;14.94;66.47